createdAt,value
2022-08-24T00:00:26.875Z,5.87
2022-08-24T00:02:55.090Z,6.33
2022-08-24T00:05:23.429Z,5.40
2022-08-24T00:07:51.742Z,5.20
2022-08-24T00:10:22.084Z,5.60
2022-08-24T00:12:50.954Z,5.77
2022-08-24T00:15:19.591Z,5.27
2022-08-24T00:17:49.034Z,5.77
2022-08-24T00:20:17.308Z,5.43
2022-08-24T00:22:45.669Z,5.80
2022-08-24T00:25:14.887Z,5.03
2022-08-24T00:27:43.586Z,5.10
2022-08-24T00:30:16.339Z,5.20
2022-08-24T00:32:45.384Z,6.10
2022-08-24T00:35:18.255Z,5.40
2022-08-24T00:37:47.882Z,5.47
2022-08-24T00:40:23.364Z,5.27
2022-08-24T00:42:52.268Z,6.00
2022-08-24T00:45:22.030Z,5.53
2022-08-24T00:47:56.582Z,5.30
2022-08-24T00:50:35.691Z,4.70
2022-08-24T00:53:10.033Z,4.90
2022-08-24T00:55:43.457Z,6.30
2022-08-24T00:58:20.493Z,5.50
2022-08-24T01:00:54.240Z,4.83
2022-08-24T01:03:22.882Z,5.20
2022-08-24T01:05:52.767Z,4.87
2022-08-24T01:08:21.665Z,5.17
2022-08-24T01:10:56.665Z,5.60
2022-08-24T01:13:26.143Z,5.37
2022-08-24T01:15:59.519Z,4.73
2022-08-24T01:18:46.853Z,5.27
2022-08-24T01:21:22.454Z,5.57
2022-08-24T01:23:55.303Z,5.30
2022-08-24T01:26:27.712Z,5.57
2022-08-24T01:29:01.144Z,5.13
2022-08-24T01:31:29.961Z,5.10
2022-08-24T01:33:58.248Z,5.23
2022-08-24T01:36:33.523Z,4.83
2022-08-24T01:39:09.905Z,4.20
2022-08-24T01:41:38.128Z,5.27
2022-08-24T01:44:06.587Z,5.40
2022-08-24T01:46:35.427Z,4.80
2022-08-24T01:49:05.288Z,5.03
2022-08-24T01:51:34.980Z,5.20
2022-08-24T01:54:06.585Z,4.83
2022-08-24T01:56:36.494Z,4.87
2022-08-24T01:59:07.617Z,5.10
2022-08-24T02:01:40.035Z,5.20
2022-08-24T02:04:10.079Z,5.17
2022-08-24T02:06:39.484Z,5.17
2022-08-24T02:09:09.026Z,5.30
2022-08-24T02:11:39.361Z,4.73
2022-08-24T02:14:08.252Z,4.63
2022-08-24T02:16:36.780Z,4.80
2022-08-24T02:19:05.057Z,4.90
2022-08-24T02:21:33.504Z,5.03
2022-08-24T02:24:01.573Z,4.77
2022-08-24T02:26:31.438Z,4.77
2022-08-24T02:29:03.803Z,5.50
2022-08-24T02:31:32.313Z,4.80
2022-08-24T02:34:00.696Z,4.73
2022-08-24T02:36:28.731Z,5.37
2022-08-24T02:38:57.578Z,4.77
2022-08-24T02:41:26.382Z,5.57
2022-08-24T02:43:56.857Z,4.90
2022-08-24T02:46:28.834Z,4.53
2022-08-24T02:49:10.675Z,4.70
2022-08-24T02:51:47.252Z,5.13
2022-08-24T02:54:18.177Z,5.20
2022-08-24T02:56:46.903Z,4.40
2022-08-24T02:59:17.562Z,5.57
2022-08-24T03:01:46.917Z,5.27
2022-08-24T03:04:18.545Z,5.90
2022-08-24T03:06:46.731Z,4.90
2022-08-24T03:09:15.336Z,4.53
2022-08-24T03:11:45.125Z,4.70
2022-08-24T03:14:14.039Z,5.03
2022-08-24T03:16:44.005Z,5.47
2022-08-24T03:19:12.592Z,4.77
2022-08-24T03:21:41.632Z,4.40
2022-08-24T03:24:10.762Z,4.13
2022-08-24T03:26:39.031Z,4.60
2022-08-24T03:29:12.532Z,4.70
2022-08-24T03:31:40.608Z,5.23
2022-08-24T03:34:13.537Z,4.20
2022-08-24T03:36:45.868Z,5.00
2022-08-24T03:39:14.120Z,4.83
2022-08-24T03:41:42.360Z,4.90
2022-08-24T03:44:10.499Z,4.60
2022-08-24T03:46:39.688Z,4.63
2022-08-24T03:49:10.770Z,4.40
2022-08-24T03:51:39.371Z,4.67
2022-08-24T03:54:13.065Z,4.50
2022-08-24T03:56:42.204Z,4.63
2022-08-24T03:59:11.392Z,4.87
2022-08-24T04:01:40.966Z,4.63
2022-08-24T04:04:11.223Z,5.00
2022-08-24T04:06:44.110Z,4.70
2022-08-24T04:09:12.643Z,4.40
2022-08-24T04:11:41.660Z,4.40
2022-08-24T04:14:20.276Z,3.87
2022-08-24T04:16:57.553Z,4.40
2022-08-24T04:19:28.565Z,4.30
2022-08-24T04:21:57.352Z,5.53
2022-08-24T04:24:26.232Z,4.80
2022-08-24T04:26:54.488Z,3.70
2022-08-24T04:29:22.776Z,4.13
2022-08-24T04:31:50.859Z,4.47
2022-08-24T04:34:19.412Z,4.57
2022-08-24T04:36:49.030Z,4.20
2022-08-24T04:39:17.255Z,4.00
2022-08-24T04:41:45.317Z,4.80
2022-08-24T04:44:15.045Z,4.77
2022-08-24T04:46:43.173Z,3.43
2022-08-24T04:49:11.600Z,4.07
2022-08-24T04:51:39.670Z,4.10
2022-08-24T04:54:09.321Z,4.60
2022-08-24T04:56:37.946Z,4.47
2022-08-24T04:59:06.917Z,5.33
2022-08-24T05:01:35.212Z,5.23
2022-08-24T05:04:05.125Z,4.90
2022-08-24T05:06:34.226Z,5.83
2022-08-24T05:09:05.039Z,4.90
2022-08-24T05:11:37.052Z,5.30
2022-08-24T05:14:05.949Z,5.07
2022-08-24T05:16:38.165Z,5.17
2022-08-24T05:19:08.025Z,4.80
2022-08-24T05:21:36.193Z,4.80
2022-08-24T05:24:05.074Z,4.27
2022-08-24T05:26:34.488Z,3.93
2022-08-24T05:29:04.068Z,4.43
2022-08-24T05:31:34.615Z,4.27
2022-08-24T05:34:04.469Z,4.97
2022-08-24T05:36:37.941Z,3.80
2022-08-24T05:39:11.524Z,4.30
2022-08-24T05:41:44.255Z,4.67
2022-08-24T05:44:14.024Z,4.60
2022-08-24T05:46:43.041Z,3.70
2022-08-24T05:49:12.281Z,4.63
2022-08-24T05:51:42.528Z,3.70
2022-08-24T05:54:11.316Z,4.03
2022-08-24T05:56:40.700Z,4.83
2022-08-24T05:59:09.488Z,3.70
2022-08-24T06:01:40.325Z,4.20
2022-08-24T06:04:12.320Z,3.57
2022-08-24T06:06:40.364Z,3.50
2022-08-24T06:09:08.429Z,3.63
2022-08-24T06:11:39.943Z,4.90
2022-08-24T06:14:13.396Z,3.90
2022-08-24T06:16:45.734Z,3.50
2022-08-24T06:19:17.520Z,3.77
2022-08-24T06:21:47.987Z,4.10
2022-08-24T06:24:16.833Z,3.70
2022-08-24T06:27:04.172Z,3.37
2022-08-24T06:29:35.336Z,4.37
2022-08-24T06:32:03.862Z,4.00
2022-08-24T06:34:31.957Z,4.77
2022-08-24T06:37:01.058Z,4.23
2022-08-24T06:39:29.313Z,3.93
2022-08-24T06:41:57.386Z,3.90
2022-08-24T06:44:25.423Z,4.33
2022-08-24T06:46:54.938Z,3.83
2022-08-24T06:49:23.704Z,3.40
2022-08-24T06:51:51.889Z,3.50
2022-08-24T06:54:21.720Z,4.13
2022-08-24T06:56:49.991Z,3.50
2022-08-24T06:59:18.881Z,3.37
2022-08-24T07:01:47.061Z,3.83
2022-08-24T07:04:16.559Z,3.77
2022-08-24T07:06:45.088Z,3.10
2022-08-24T07:09:13.383Z,3.47
2022-08-24T07:11:41.807Z,3.57
2022-08-24T07:14:10.253Z,2.77
2022-08-24T07:16:38.526Z,3.43
2022-08-24T07:19:07.007Z,3.73
2022-08-24T07:21:36.854Z,4.50
2022-08-24T07:24:07.038Z,3.57
2022-08-24T07:26:35.354Z,3.60
2022-08-24T07:29:06.330Z,3.70
2022-08-24T07:31:35.852Z,3.50
2022-08-24T07:34:05.563Z,3.20
2022-08-24T07:36:34.288Z,2.60
2022-08-24T07:39:04.129Z,3.00
2022-08-24T07:44:21.054Z,3.10
2022-08-24T07:46:49.308Z,3.47
2022-08-24T07:49:36.209Z,3.30
2022-08-24T07:52:05.964Z,3.10
2022-08-24T07:54:35.982Z,3.63
2022-08-24T07:57:06.467Z,3.27
2022-08-24T07:59:34.955Z,3.30
2022-08-24T08:02:03.260Z,3.47
2022-08-24T08:04:31.712Z,3.20
2022-08-24T08:07:00.780Z,3.50
2022-08-24T08:09:29.261Z,3.00
2022-08-24T08:11:58.664Z,3.13
2022-08-24T08:14:26.797Z,3.10
2022-08-24T08:16:54.949Z,3.60
2022-08-24T08:19:23.110Z,3.37
2022-08-24T08:25:58.549Z,3.60
2022-08-24T08:28:35.848Z,3.33
2022-08-24T08:31:06.662Z,4.17
2022-08-24T08:33:35.960Z,3.00
2022-08-24T08:36:09.966Z,3.70
2022-08-24T08:38:40.333Z,2.90
2022-08-24T08:41:43.978Z,3.47
2022-08-24T08:44:25.706Z,3.27
2022-08-24T08:47:08.478Z,3.43
2022-08-24T08:50:00.576Z,3.80
2022-08-24T08:53:02.774Z,3.40
2022-08-24T08:55:37.705Z,3.20
2022-08-24T08:58:33.737Z,3.47
2022-08-24T09:01:14.482Z,2.77
2022-08-24T09:04:20.941Z,3.47
2022-08-24T09:07:20.976Z,3.63
2022-08-24T09:10:17.755Z,3.43
2022-08-24T09:13:08.801Z,3.23
2022-08-24T09:15:59.984Z,3.80
2022-08-24T09:18:46.473Z,2.97
2022-08-24T09:21:42.295Z,2.90
2022-08-24T09:24:38.067Z,2.90
2022-08-24T09:27:16.522Z,3.53
2022-08-24T09:30:07.851Z,2.97
2022-08-24T09:32:56.655Z,3.23
2022-08-24T09:35:42.358Z,3.20
2022-08-24T09:38:24.706Z,3.27
2022-08-24T09:41:23.976Z,3.87
2022-08-24T09:44:25.168Z,3.20
2022-08-24T09:47:50.497Z,4.17
2022-08-24T09:50:55.888Z,3.53
2022-08-24T09:53:55.655Z,3.17
2022-08-24T09:56:42.508Z,3.33
2022-08-24T09:59:28.048Z,3.07
2022-08-24T10:02:17.135Z,3.13
2022-08-24T10:04:57.850Z,2.90
2022-08-24T10:07:37.624Z,3.23
2022-08-24T10:10:25.823Z,3.43
2022-08-24T10:13:15.751Z,3.33
2022-08-24T10:15:56.433Z,3.20
2022-08-24T10:18:40.594Z,3.60
2022-08-24T10:21:24.437Z,3.40
2022-08-24T10:24:13.202Z,4.17
2022-08-24T10:27:03.218Z,4.00
2022-08-24T10:29:48.885Z,3.80
2022-08-24T10:32:35.294Z,3.33
2022-08-24T10:35:11.406Z,3.37
2022-08-24T10:38:25.267Z,2.93
2022-08-24T10:41:27.756Z,3.27
2022-08-24T10:44:28.520Z,3.47
2022-08-24T10:47:00.812Z,3.60
2022-08-24T10:50:21.325Z,3.33
2022-08-24T10:53:18.615Z,3.60
2022-08-24T10:55:47.810Z,3.80
2022-08-24T10:58:46.349Z,3.63
2022-08-24T11:01:24.132Z,3.70
2022-08-24T11:03:58.820Z,3.57
2022-08-24T11:06:31.833Z,3.70
2022-08-24T11:09:06.056Z,3.70
2022-08-24T11:11:40.440Z,2.67
2022-08-24T11:14:24.969Z,3.87
2022-08-24T11:16:57.526Z,3.80
2022-08-24T11:19:35.977Z,3.80
2022-08-24T11:22:22.657Z,3.03
2022-08-24T11:24:55.586Z,3.40
2022-08-24T11:27:31.871Z,2.80
2022-08-24T11:30:12.725Z,2.63
2022-08-24T11:32:45.176Z,2.87
2022-08-24T11:35:26.402Z,2.90
2022-08-24T11:38:08.348Z,3.47
2022-08-24T11:40:46.355Z,3.43
2022-08-24T11:43:29.908Z,3.00
2022-08-24T11:46:12.442Z,3.03
2022-08-24T11:48:56.761Z,2.93
2022-08-24T11:51:38.234Z,2.27
2022-08-24T11:54:13.988Z,2.57
2022-08-24T11:56:54.528Z,2.77
2022-08-24T11:59:37.729Z,3.60
2022-08-24T12:02:12.834Z,3.00
2022-08-24T12:04:52.169Z,3.20
2022-08-24T12:07:36.671Z,2.80
2022-08-24T12:10:24.238Z,2.37
2022-08-24T12:13:00.303Z,2.40
2022-08-24T12:15:41.584Z,2.40
2022-08-24T12:18:25.090Z,2.40
2022-08-24T12:20:55.583Z,2.50
2022-08-24T12:23:31.716Z,2.20
2022-08-24T12:26:06.175Z,2.40
2022-08-24T12:28:39.955Z,2.30
2022-08-24T12:31:17.457Z,1.80
2022-08-24T12:33:51.514Z,2.30
2022-08-24T12:36:32.065Z,2.10
2022-08-24T12:39:13.659Z,2.73
2022-08-24T12:41:56.281Z,2.40
2022-08-24T12:44:32.606Z,2.10
2022-08-24T12:47:00.709Z,2.23
2022-08-24T12:49:36.406Z,2.23
2022-08-24T12:52:26.973Z,1.80
2022-08-24T12:55:19.035Z,2.03
2022-08-24T12:57:55.927Z,2.10
2022-08-24T13:00:33.360Z,2.47
2022-08-24T13:03:07.361Z,2.07
2022-08-24T13:05:49.057Z,1.90
2022-08-24T13:08:35.379Z,2.47
2022-08-24T13:11:09.444Z,2.27
2022-08-24T13:13:49.931Z,1.93
2022-08-24T13:17:06.029Z,2.10
2022-08-24T13:19:39.598Z,1.80
2022-08-24T13:22:49.853Z,2.10
2022-08-24T13:25:44.938Z,2.00
2022-08-24T13:28:39.768Z,1.90
2022-08-24T13:31:28.922Z,1.90
2022-08-24T13:34:38.029Z,2.87
2022-08-24T13:37:15.899Z,1.90
2022-08-24T13:40:02.389Z,2.17
2022-08-24T13:42:59.511Z,1.70
2022-08-24T13:45:37.405Z,2.07
2022-08-24T13:48:24.122Z,2.30
2022-08-24T13:51:29.968Z,1.97
2022-08-24T13:54:24.158Z,2.20
2022-08-24T13:57:17.164Z,2.53
2022-08-24T14:00:26.369Z,2.20
2022-08-24T14:03:22.750Z,1.93
2022-08-24T14:05:57.773Z,2.57
2022-08-24T14:08:44.137Z,2.50
2022-08-24T14:11:18.401Z,2.50
2022-08-24T14:14:07.349Z,1.80
2022-08-24T14:17:19.349Z,2.63
2022-08-24T14:20:04.346Z,2.47
2022-08-24T14:22:37.536Z,2.20
2022-08-24T14:25:20.941Z,2.17
2022-08-24T14:27:50.946Z,3.70
2022-08-24T14:30:50.305Z,2.40
2022-08-24T14:33:34.416Z,2.70
2022-08-24T14:36:17.073Z,3.10
2022-08-24T14:39:05.544Z,2.43
2022-08-24T14:41:58.502Z,2.70
2022-08-24T14:45:01.585Z,2.00
2022-08-24T14:47:47.432Z,2.50
2022-08-24T14:50:20.411Z,2.63
2022-08-24T14:53:08.733Z,2.10
2022-08-24T14:55:45.730Z,2.20
2022-08-24T14:58:29.334Z,2.43
2022-08-24T15:01:49.360Z,1.97
2022-08-24T15:04:38.154Z,2.60
2022-08-24T15:07:26.332Z,2.30
2022-08-24T15:09:56.589Z,2.10
2022-08-24T15:12:38.421Z,2.00
2022-08-24T15:15:15.192Z,1.97
2022-08-24T15:18:00.087Z,2.27
2022-08-24T15:20:46.154Z,1.70
2022-08-24T15:23:22.673Z,2.50
2022-08-24T15:25:57.096Z,2.10
2022-08-24T15:28:29.632Z,2.10
2022-08-24T15:31:00.995Z,1.90
2022-08-24T15:33:31.724Z,2.17
2022-08-24T15:36:12.726Z,2.00
2022-08-24T15:38:43.167Z,1.90
2022-08-24T15:41:18.853Z,2.30
2022-08-24T15:43:50.840Z,2.07
2022-08-24T15:46:24.546Z,2.30
2022-08-24T15:49:00.992Z,1.90
2022-08-24T15:51:53.186Z,1.63
2022-08-24T15:54:36.113Z,1.70
2022-08-24T15:57:08.860Z,2.33
2022-08-24T15:59:49.614Z,1.60
2022-08-24T16:02:26.537Z,1.77
2022-08-24T16:05:14.445Z,1.97
2022-08-24T16:08:17.198Z,2.13
2022-08-24T16:10:50.979Z,2.30
2022-08-24T16:13:29.209Z,3.27
2022-08-24T16:16:06.887Z,2.53
2022-08-24T16:18:55.254Z,2.17
2022-08-24T16:21:34.440Z,3.07
2022-08-24T16:24:09.869Z,3.13
2022-08-24T16:27:07.116Z,2.90
2022-08-24T16:29:55.535Z,2.70
2022-08-24T16:32:33.654Z,3.23
2022-08-24T16:35:20.241Z,2.73
2022-08-24T16:37:48.391Z,2.90
2022-08-24T16:40:18.361Z,2.70
2022-08-24T16:42:46.969Z,3.20
2022-08-24T16:45:19.090Z,3.10
2022-08-24T16:47:47.947Z,2.47
2022-08-24T16:50:20.293Z,2.87
2022-08-24T16:52:48.771Z,2.87
2022-08-24T16:55:18.329Z,3.00
2022-08-24T16:57:47.497Z,3.23
2022-08-24T17:00:21.836Z,2.73
2022-08-24T17:02:50.861Z,3.00
2022-08-24T17:05:19.849Z,2.50
2022-08-24T17:07:50.076Z,2.23
2022-08-24T17:10:23.087Z,2.37
2022-08-24T17:12:51.245Z,2.83
2022-08-24T17:15:20.088Z,2.40
2022-08-24T17:17:57.489Z,2.30
2022-08-24T17:20:25.890Z,2.70
2022-08-24T17:22:54.268Z,2.70
2022-08-24T17:25:24.336Z,2.67
2022-08-24T17:27:53.986Z,2.77
2022-08-24T17:30:23.706Z,2.23
2022-08-24T17:32:52.401Z,2.63
2022-08-24T17:35:21.315Z,2.60
2022-08-24T17:37:52.105Z,2.53
2022-08-24T17:40:29.761Z,2.67
2022-08-24T17:42:57.976Z,2.47
2022-08-24T17:45:26.141Z,2.53
2022-08-24T17:47:54.473Z,2.40
2022-08-24T17:50:24.076Z,2.40
2022-08-24T17:52:56.286Z,2.93
2022-08-24T17:55:29.443Z,2.17
2022-08-24T17:57:58.234Z,2.47
2022-08-24T18:00:26.351Z,3.13
2022-08-24T18:02:54.435Z,2.67
2022-08-24T18:05:22.659Z,3.20
2022-08-24T18:07:54.829Z,3.03
2022-08-24T18:10:27.405Z,2.63
2022-08-24T18:12:57.780Z,2.90
2022-08-24T18:15:34.733Z,3.30
2022-08-24T18:18:08.909Z,3.30
2022-08-24T18:20:40.351Z,3.13
2022-08-24T18:23:11.655Z,3.57
2022-08-24T18:25:48.882Z,2.60
2022-08-24T18:28:22.030Z,3.20
2022-08-24T18:30:52.428Z,3.07
2022-08-24T18:33:20.476Z,3.20
2022-08-24T18:35:48.551Z,3.70
2022-08-24T18:38:16.698Z,3.40
2022-08-24T18:40:52.170Z,3.17
2022-08-24T18:43:24.590Z,2.90
2022-08-24T18:45:54.265Z,3.43
2022-08-24T18:48:22.514Z,3.30
2022-08-24T18:50:51.552Z,3.60
2022-08-24T18:53:20.103Z,3.33
2022-08-24T18:55:48.855Z,3.03
2022-08-24T18:58:16.940Z,3.73
2022-08-24T19:00:47.057Z,3.00
2022-08-24T19:03:27.142Z,3.30
2022-08-24T19:05:55.616Z,3.13
2022-08-24T19:08:23.948Z,3.97
2022-08-24T19:10:52.771Z,4.23
2022-08-24T19:13:21.108Z,3.37
2022-08-24T19:15:51.149Z,3.53
2022-08-24T19:18:23.483Z,3.27
2022-08-24T19:20:55.214Z,3.40
2022-08-24T19:23:27.621Z,3.30
2022-08-24T19:25:56.548Z,3.13
2022-08-24T19:28:26.325Z,4.20
2022-08-24T19:30:57.794Z,3.50
2022-08-24T19:33:29.240Z,3.10
2022-08-24T19:35:59.022Z,3.07
2022-08-24T19:38:27.334Z,3.80
2022-08-24T19:40:57.983Z,3.40
2022-08-24T19:43:27.742Z,4.47
2022-08-24T19:46:05.236Z,3.60
2022-08-24T19:48:36.185Z,3.50
2022-08-24T19:51:06.360Z,3.67
2022-08-24T19:53:37.409Z,4.37
2022-08-24T19:56:06.752Z,3.90
2022-08-24T19:58:41.508Z,3.80
2022-08-24T20:01:14.236Z,3.20
2022-08-24T20:03:42.415Z,4.00
2022-08-24T20:06:10.984Z,3.40
2022-08-24T20:08:39.832Z,3.70
2022-08-24T20:11:08.737Z,3.80
2022-08-24T20:13:37.337Z,4.27
2022-08-24T20:16:07.225Z,4.30
2022-08-24T20:18:40.655Z,3.97
2022-08-24T20:21:09.478Z,3.90
2022-08-24T20:23:38.388Z,4.07
2022-08-24T20:26:08.348Z,3.90
2022-08-24T20:28:41.411Z,3.80
2022-08-24T20:31:10.487Z,3.87
2022-08-24T20:33:40.237Z,3.50
2022-08-24T20:36:14.436Z,4.07
2022-08-24T20:38:45.358Z,3.77
2022-08-24T20:41:13.529Z,3.60
2022-08-24T20:43:41.592Z,3.80
2022-08-24T20:46:10.957Z,3.70
2022-08-24T20:48:43.175Z,4.47
2022-08-24T20:51:11.585Z,3.90
2022-08-24T20:53:39.635Z,3.90
2022-08-24T20:56:12.893Z,4.77
2022-08-24T20:58:41.646Z,4.93
2022-08-24T21:01:09.960Z,5.33
2022-08-24T21:03:39.962Z,4.27
2022-08-24T21:06:09.985Z,4.33
2022-08-24T21:08:38.130Z,4.50
2022-08-24T21:11:06.772Z,5.07
2022-08-24T21:13:35.668Z,4.90
2022-08-24T21:16:06.121Z,4.20
2022-08-24T21:18:34.435Z,4.43
2022-08-24T21:21:04.791Z,4.30
2022-08-24T21:23:34.562Z,3.83
2022-08-24T21:26:05.067Z,4.33
2022-08-24T21:28:34.820Z,4.23
2022-08-24T21:31:06.223Z,3.67
2022-08-24T21:33:52.180Z,4.10
2022-08-24T21:36:23.298Z,5.00
2022-08-24T21:38:52.395Z,4.20
2022-08-24T21:41:21.712Z,3.87
2022-08-24T21:43:49.799Z,4.00
2022-08-24T21:46:18.280Z,3.63
2022-08-24T21:48:47.807Z,4.43
2022-08-24T21:51:16.253Z,4.87
2022-08-24T21:53:46.417Z,3.70
2022-08-24T21:56:23.480Z,3.23
2022-08-24T21:58:52.136Z,4.30
2022-08-24T22:01:20.764Z,3.90
2022-08-24T22:03:48.917Z,4.07
2022-08-24T22:06:17.316Z,3.83
2022-08-24T22:08:46.828Z,4.30
2022-08-24T22:11:17.945Z,3.83
2022-08-24T22:13:46.997Z,4.40
2022-08-24T22:16:15.217Z,3.90
2022-08-24T22:18:43.325Z,4.10
2022-08-24T22:21:14.349Z,3.90
2022-08-24T22:23:42.788Z,4.03
2022-08-24T22:26:13.201Z,4.07
2022-08-24T22:28:42.698Z,4.17
2022-08-24T22:31:19.570Z,3.90
2022-08-24T22:33:47.879Z,3.97
2022-08-24T22:36:17.369Z,3.70
2022-08-24T22:38:46.181Z,4.10
2022-08-24T22:41:15.999Z,3.53
2022-08-24T22:44:02.082Z,3.30
2022-08-24T22:46:30.392Z,3.50
2022-08-24T22:48:58.516Z,3.00
2022-08-24T22:51:26.788Z,3.97
2022-08-24T22:53:55.193Z,3.50
2022-08-24T22:56:27.252Z,4.10
2022-08-24T22:58:56.741Z,3.37
2022-08-24T23:01:29.672Z,3.23
2022-08-24T23:04:00.718Z,3.20
2022-08-24T23:06:29.656Z,3.57
2022-08-24T23:08:58.364Z,4.23
2022-08-24T23:11:28.095Z,3.43
2022-08-24T23:13:58.577Z,2.63
2022-08-24T23:16:28.016Z,3.70
2022-08-24T23:19:13.987Z,3.60
2022-08-24T23:21:42.744Z,3.73
2022-08-24T23:24:12.732Z,3.00
2022-08-24T23:26:43.710Z,3.77
2022-08-24T23:29:14.570Z,3.83
2022-08-24T23:31:43.699Z,3.37
2022-08-24T23:34:12.310Z,3.57
2022-08-24T23:36:40.949Z,2.93
2022-08-24T23:39:11.163Z,3.20
2022-08-24T23:41:44.134Z,3.07
2022-08-24T23:44:17.592Z,3.93
2022-08-24T23:46:46.564Z,3.70
2022-08-24T23:49:17.069Z,3.10
2022-08-24T23:51:45.147Z,3.30
2022-08-24T23:54:13.832Z,3.27
2022-08-24T23:56:46.481Z,3.00
2022-08-24T23:59:18.576Z,3.30
